Weather at West Angelas Airport

Public forecast

Using degrees Celsius for public forecast. Weather courtesy of forecast.io.

Closest aviation weather report (METAR) to West Angelas Airport

Closest report is Port Hedland International Airport, 165.6 nm (306.8 km) N.

2024/05/26 22:00 (retrieved 13 minutes ago)

YPPD 262200Z AUTO 15007KT 9999 // NCD 17/04 Q1016 RF000/0000

Closest aviation forecast (TAF) to West Angelas Airport

Closest forecast is Port Hedland International Airport, 165.6 nm (306.8 km) N.

2024/05/26 18:36 (retrieved 4 hours ago)

TAF YPPD 261701Z 2618/2718 13008KT CAVOK FM270000 10018KT CAVOK BECMG 2704/2705 02014KT CAVOK FM271000 33010KT CAVOK FM271400 21005KT CAVOK